Time;durP1;ratioP1;P1;durP2;ratioP2;P2;SDS_P1;SDS_P2;PMS_P1;PMS_P2;Temp;Humidity;BMP_temperature;BMP_pressure;BME280_temperature;BME280_humidity;BME280_pressure;Samples;Min_cycle;Max_cycle;Signal;HPM_P1;HPM_P2
2024/01/07 00:01:48;;;;;;;0.00;0.00;;;0.80;88.90;;;;;;5045538;28;20048;-67
2024/01/07 00:04:18;;;;;;;0.68;0.68;;;0.80;88.50;;;;;;5039190;28;20044;-67
2024/01/07 00:06:44;;;;;;;0.20;0.20;;;0.80;88.40;;;;;;5045587;28;20040;-67
2024/01/07 00:09:12;;;;;;;0.47;0.47;;;0.90;88.00;;;;;;5027955;28;20048;-67
2024/01/07 00:11:37;;;;;;;0.20;0.20;;;0.90;87.60;;;;;;5045847;28;20045;-67
2024/01/07 00:14:03;;;;;;;0.20;0.20;;;0.90;87.60;;;;;;5044905;28;20722;-67
2024/01/07 00:16:28;;;;;;;0.00;0.00;;;1.00;88.00;;;;;;5044745;28;20048;-67
2024/01/07 00:18:54;;;;;;;0.10;0.10;;;0.90;87.60;;;;;;5045809;28;20041;-67
2024/01/07 00:21:20;;;;;;;0.20;0.20;;;0.90;87.80;;;;;;5045501;28;20051;-67
2024/01/07 00:23:45;;;;;;;0.00;0.00;;;0.90;87.70;;;;;;5045298;28;20045;-67
2024/01/07 00:26:11;;;;;;;0.05;0.05;;;0.90;87.50;;;;;;5045263;28;20049;-67
2024/01/07 00:28:37;;;;;;;0.10;0.10;;;0.90;87.40;;;;;;5048652;28;20091;-67
2024/01/07 00:31:02;;;;;;;0.10;0.10;;;0.90;87.30;;;;;;5049797;28;20053;-67
2024/01/07 00:33:30;;;;;;;0.10;0.10;;;0.90;87.10;;;;;;5048876;28;20041;-67
2024/01/07 00:35:55;;;;;;;0.00;0.00;;;0.90;87.30;;;;;;5049580;28;20097;-67
2024/01/07 00:38:21;;;;;;;0.08;0.08;;;0.90;87.10;;;;;;5049466;28;20037;-67
2024/01/07 00:40:46;;;;;;;0.00;0.00;;;0.80;87.10;;;;;;5049146;28;20499;-67
2024/01/07 00:43:12;;;;;;;0.03;0.03;;;0.80;87.10;;;;;;5049319;28;20091;-67
2024/01/07 00:45:38;;;;;;;0.00;0.00;;;0.80;87.40;;;;;;5046117;28;20102;-67
2024/01/07 00:48:04;;;;;;;0.43;0.43;;;0.90;87.40;;;;;;5048886;28;20086;-67
2024/01/07 00:50:29;;;;;;;0.00;0.00;;;0.80;87.40;;;;;;5049202;28;20045;-67
2024/01/07 00:52:55;;;;;;;4.10;2.13;;;0.90;87.60;;;;;;5049045;28;20029;-67
2024/01/07 00:55:22;;;;;;;0.00;0.00;;;0.90;87.40;;;;;;5048786;28;20041;-67
2024/01/07 00:57:47;;;;;;;0.00;0.00;;;0.80;87.80;;;;;;5048849;28;20052;-67
2024/01/07 01:00:13;;;;;;;0.00;0.00;;;0.90;87.50;;;;;;5049138;28;20237;-67
2024/01/07 01:02:39;;;;;;;0.20;0.20;;;0.80;87.70;;;;;;5048917;28;20037;-67
2024/01/07 01:05:05;;;;;;;0.10;0.10;;;0.80;87.70;;;;;;5047993;28;20564;-67
2024/01/07 01:07:31;;;;;;;0.57;0.38;;;0.90;87.80;;;;;;5048558;28;20056;-67
2024/01/07 01:09:56;;;;;;;0.10;0.10;;;0.90;87.50;;;;;;5048940;28;20044;-67
2024/01/07 01:12:22;;;;;;;0.10;0.10;;;0.90;87.20;;;;;;5048872;28;20483;-67
2024/01/07 01:14:47;;;;;;;0.00;0.00;;;0.90;87.10;;;;;;5048606;28;20052;-67
2024/01/07 01:17:13;;;;;;;0.20;0.20;;;0.70;87.20;;;;;;5048672;28;20568;-67
2024/01/07 01:19:39;;;;;;;0.10;0.10;;;0.70;87.20;;;;;;5047984;28;20056;-67
2024/01/07 01:22:04;;;;;;;0.00;0.00;;;0.80;87.30;;;;;;5049142;28;20624;-67
2024/01/07 01:24:30;;;;;;;0.00;0.00;;;0.70;87.60;;;;;;5048600;28;20036;-67
2024/01/07 01:26:55;;;;;;;0.20;0.20;;;0.70;87.60;;;;;;5048394;28;20115;-67
2024/01/07 01:29:21;;;;;;;0.20;0.20;;;0.70;87.70;;;;;;5047867;28;20431;-67
2024/01/07 01:31:47;;;;;;;0.10;0.10;;;0.70;87.50;;;;;;5048456;28;20052;-67
2024/01/07 01:34:12;;;;;;;0.00;0.00;;;0.70;87.20;;;;;;5048261;28;20072;-67
2024/01/07 01:36:38;;;;;;;0.30;0.30;;;0.60;87.40;;;;;;5047795;28;20120;-67
2024/01/07 01:39:03;;;;;;;0.00;0.00;;;0.60;87.60;;;;;;5046520;28;20041;-67
2024/01/07 01:41:29;;;;;;;0.00;0.00;;;0.70;87.40;;;;;;5047486;28;20057;-67
2024/01/07 01:43:59;;;;;;;0.00;0.00;;;0.70;87.40;;;;;;5047998;28;20107;-67
2024/01/07 01:46:25;;;;;;;0.10;0.10;;;0.60;87.70;;;;;;5043595;28;20261;-67
2024/01/07 01:48:51;;;;;;;0.20;0.20;;;0.60;87.90;;;;;;5029340;28;20554;-67
2024/01/07 01:51:17;;;;;;;0.17;0.17;;;0.60;87.90;;;;;;5046570;28;20048;-67
2024/01/07 01:53:44;;;;;;;0.00;0.00;;;0.70;87.90;;;;;;5048528;28;20044;-67
2024/01/07 01:56:10;;;;;;;0.10;0.10;;;0.60;87.90;;;;;;5047616;28;20123;-67
2024/01/07 01:58:37;;;;;;;0.00;0.00;;;0.60;88.00;;;;;;5048590;28;20124;-67
2024/01/07 02:01:03;;;;;;;0.00;0.00;;;0.60;88.00;;;;;;5048349;28;20037;-67
2024/01/07 02:03:29;;;;;;;1.02;1.02;;;0.70;88.10;;;;;;5047992;28;20496;-67
2024/01/07 02:05:56;;;;;;;0.10;0.10;;;0.70;88.10;;;;;;5048139;28;20182;-67
2024/01/07 02:08:23;;;;;;;0.10;0.10;;;0.70;88.10;;;;;;5048575;28;20052;-67
2024/01/07 02:10:48;;;;;;;0.20;0.20;;;0.70;88.50;;;;;;5048320;28;20127;-67
2024/01/07 02:13:14;;;;;;;0.00;0.00;;;0.90;88.10;;;;;;5048093;28;20500;-67
2024/01/07 02:15:40;;;;;;;0.10;0.10;;;0.90;87.90;;;;;;5047859;28;20033;-67
2024/01/07 02:18:05;;;;;;;0.00;0.00;;;0.90;87.60;;;;;;5048172;28;20044;-67
2024/01/07 02:20:31;;;;;;;0.00;0.00;;;0.90;87.60;;;;;;5048164;28;20052;-67
2024/01/07 02:22:59;;;;;;;0.10;0.10;;;0.90;87.50;;;;;;5047600;28;20041;-67
2024/01/07 02:25:25;;;;;;;0.00;0.00;;;0.80;87.40;;;;;;5048021;28;20060;-67
2024/01/07 02:27:51;;;;;;;0.00;0.00;;;0.90;87.50;;;;;;5047117;28;20083;-67
2024/01/07 02:30:17;;;;;;;0.00;0.00;;;1.00;87.20;;;;;;5047651;28;20083;-67
2024/01/07 02:32:43;;;;;;;2.80;2.63;;;0.90;87.20;;;;;;5048011;28;20045;-67
2024/01/07 02:35:08;;;;;;;0.00;0.00;;;0.80;87.40;;;;;;5045882;28;20040;-67
2024/01/07 02:37:34;;;;;;;1.13;0.93;;;0.90;87.30;;;;;;5027671;28;20056;-67
2024/01/07 02:40:00;;;;;;;0.00;0.00;;;0.70;87.40;;;;;;5048232;28;20044;-67
2024/01/07 02:42:26;;;;;;;0.38;0.38;;;0.70;87.70;;;;;;5047439;28;20049;-67
2024/01/07 02:44:52;;;;;;;0.00;0.00;;;0.70;87.50;;;;;;5046962;28;20040;-67
2024/01/07 02:47:18;;;;;;;0.00;0.00;;;0.60;87.50;;;;;;5046741;28;20037;-67
2024/01/07 02:49:43;;;;;;;0.20;0.20;;;0.60;87.50;;;;;;5047301;28;20560;-67
2024/01/07 02:52:09;;;;;;;0.00;0.00;;;0.70;87.20;;;;;;5042325;28;20841;-67
2024/01/07 02:54:34;;;;;;;0.75;0.75;;;0.60;87.20;;;;;;5047381;28;20098;-67
2024/01/07 02:57:00;;;;;;;0.10;0.10;;;0.60;86.90;;;;;;5047053;28;20037;-67
2024/01/07 02:59:26;;;;;;;0.00;0.00;;;0.60;86.60;;;;;;5047076;28;20068;-67
2024/01/07 03:01:51;;;;;;;0.10;0.10;;;0.70;86.50;;;;;;5046787;28;20117;-67
2024/01/07 03:04:17;;;;;;;0.10;0.10;;;0.60;86.20;;;;;;5047597;28;20037;-67
2024/01/07 03:06:43;;;;;;;0.20;0.20;;;0.60;86.40;;;;;;5047145;28;20560;-67
2024/01/07 03:09:10;;;;;;;0.00;0.00;;;0.60;86.50;;;;;;5046549;28;20132;-67
2024/01/07 03:11:40;;;;;;;0.08;0.08;;;0.70;86.80;;;;;;5046986;28;20392;-67
2024/01/07 03:14:06;;;;;;;0.25;0.25;;;0.70;86.60;;;;;;5046783;28;20060;-67
2024/01/07 03:16:31;;;;;;;0.10;0.10;;;0.60;86.90;;;;;;5047373;28;20041;-67
2024/01/07 03:18:57;;;;;;;0.00;0.00;;;0.70;87.20;;;;;;5045373;28;20068;-67
2024/01/07 03:21:23;;;;;;;0.10;0.10;;;0.60;87.10;;;;;;5046921;28;20044;-67
2024/01/07 03:23:50;;;;;;;0.00;0.00;;;0.60;87.20;;;;;;5046938;28;20132;-67
2024/01/07 03:26:17;;;;;;;0.10;0.10;;;0.60;87.40;;;;;;5045694;28;20609;-67
2024/01/07 03:28:43;;;;;;;0.03;0.03;;;0.60;87.40;;;;;;5046093;28;20095;-67
2024/01/07 03:31:12;;;;;;;0.38;0.38;;;0.60;87.40;;;;;;5046812;28;20033;-67
2024/01/07 03:33:38;;;;;;;0.00;0.00;;;0.70;87.20;;;;;;5046476;28;20079;-67
2024/01/07 03:36:09;;;;;;;0.10;0.10;;;0.60;87.20;;;;;;5046670;28;20037;-67
2024/01/07 03:38:36;;;;;;;0.80;0.80;;;0.60;87.30;;;;;;5046232;28;20045;-67
2024/01/07 03:41:02;;;;;;;0.10;0.10;;;0.70;87.20;;;;;;5032913;28;20064;-67
2024/01/07 03:43:27;;;;;;;0.20;0.20;;;0.60;86.90;;;;;;5046387;28;20048;-67
2024/01/07 03:45:53;;;;;;;0.55;0.55;;;0.50;86.80;;;;;;5045746;28;20081;-67
2024/01/07 03:48:19;;;;;;;0.10;0.10;;;0.70;86.50;;;;;;5028516;28;20496;-67
2024/01/07 03:50:45;;;;;;;0.00;0.00;;;0.70;85.60;;;;;;5047080;28;20051;-67
2024/01/07 03:53:11;;;;;;;0.10;0.10;;;0.70;85.40;;;;;;5046960;28;20049;-67
2024/01/07 03:55:36;;;;;;;0.00;0.00;;;0.70;85.30;;;;;;5046775;28;20123;-67
2024/01/07 03:58:03;;;;;;;0.00;0.00;;;0.60;85.10;;;;;;5046727;28;20041;-67
2024/01/07 04:00:28;;;;;;;0.00;0.00;;;0.70;85.20;;;;;;5028631;28;20431;-67
2024/01/07 04:02:54;;;;;;;0.10;0.10;;;0.70;84.80;;;;;;5048023;28;20033;-67
2024/01/07 04:05:19;;;;;;;0.00;0.00;;;0.60;84.90;;;;;;5050592;28;20392;-67
2024/01/07 04:07:45;;;;;;;0.10;0.10;;;0.60;85.10;;;;;;5050724;28;20045;-67
2024/01/07 04:10:11;;;;;;;0.00;0.00;;;0.70;84.80;;;;;;5057448;28;20411;-67
2024/01/07 04:12:36;;;;;;;0.00;0.00;;;0.70;84.30;;;;;;5050389;28;20491;-67
2024/01/07 04:15:03;;;;;;;0.00;0.00;;;0.70;84.70;;;;;;5033017;28;20083;-67
2024/01/07 04:17:29;;;;;;;0.15;0.15;;;0.70;84.70;;;;;;5049809;28;20045;-67
2024/01/07 04:19:55;;;;;;;0.00;0.00;;;0.70;84.70;;;;;;5049782;28;20040;-67
2024/01/07 04:22:21;;;;;;;0.10;0.10;;;0.70;84.80;;;;;;5031344;28;20048;-67
2024/01/07 04:24:47;;;;;;;0.00;0.00;;;0.80;84.30;;;;;;5050938;28;20666;-67
2024/01/07 04:27:12;;;;;;;0.00;0.00;;;0.80;84.40;;;;;;5050049;28;20055;-67
2024/01/07 04:29:38;;;;;;;0.00;0.00;;;0.80;84.70;;;;;;5050138;28;20091;-67
2024/01/07 04:32:04;;;;;;;0.00;0.00;;;0.70;84.00;;;;;;5047181;28;20049;-67
2024/01/07 04:34:29;;;;;;;0.00;0.00;;;0.70;84.20;;;;;;5030941;28;20103;-67
2024/01/07 04:36:55;;;;;;;0.00;0.00;;;0.70;84.00;;;;;;5049799;28;20056;-67
2024/01/07 04:39:21;;;;;;;0.00;0.00;;;0.70;84.00;;;;;;5049250;28;20041;-67
2024/01/07 04:41:47;;;;;;;0.10;0.10;;;0.60;84.20;;;;;;5048626;28;20049;-67
2024/01/07 04:44:13;;;;;;;0.00;0.00;;;0.70;84.10;;;;;;5043842;28;20107;-67
2024/01/07 04:46:39;;;;;;;0.00;0.00;;;0.70;83.70;;;;;;5048573;28;20070;-67
2024/01/07 04:49:06;;;;;;;0.00;0.00;;;0.80;83.70;;;;;;5031624;28;20597;-67
2024/01/07 04:51:32;;;;;;;0.10;0.10;;;0.80;83.70;;;;;;5049325;28;20673;-67
2024/01/07 04:53:58;;;;;;;0.00;0.00;;;0.80;84.00;;;;;;5049615;28;20075;-67
2024/01/07 04:56:23;;;;;;;0.00;0.00;;;0.80;83.80;;;;;;5031583;28;20173;-67
2024/01/07 04:58:49;;;;;;;0.10;0.10;;;0.80;83.70;;;;;;5031331;28;20506;-68
2024/01/07 05:01:15;;;;;;;0.00;0.00;;;0.80;83.90;;;;;;5043463;28;20487;-67
2024/01/07 05:03:40;;;;;;;0.00;0.00;;;0.80;83.70;;;;;;5031415;28;20045;-67
2024/01/07 05:06:09;;;;;;;0.70;0.70;;;0.80;83.90;;;;;;5048648;28;20053;-67
2024/01/07 05:08:37;;;;;;;5.05;1.30;;;0.80;83.30;;;;;;5049008;28;20589;-67
2024/01/07 05:11:03;;;;;;;0.22;0.22;;;0.80;83.10;;;;;;5048619;28;20045;-67
2024/01/07 05:13:29;;;;;;;0.10;0.10;;;0.80;83.60;;;;;;5048351;28;20055;-67
2024/01/07 05:15:55;;;;;;;0.10;0.10;;;0.80;83.30;;;;;;5049267;28;20414;-67
2024/01/07 05:18:24;;;;;;;0.10;0.10;;;0.80;83.70;;;;;;5043580;28;20092;-67
2024/01/07 05:20:50;;;;;;;0.00;0.00;;;0.70;83.90;;;;;;5048165;28;20036;-67
2024/01/07 05:23:16;;;;;;;0.00;0.00;;;0.80;83.70;;;;;;5049330;28;20572;-67
2024/01/07 05:25:45;;;;;;;0.10;0.10;;;0.80;83.00;;;;;;5048547;28;20056;-67
2024/01/07 05:28:11;;;;;;;0.00;0.00;;;0.70;83.00;;;;;;5048355;28;20060;-67
2024/01/07 05:30:38;;;;;;;0.05;0.05;;;0.70;83.60;;;;;;5045559;28;20409;-67
2024/01/07 05:33:04;;;;;;;0.00;0.00;;;0.60;83.30;;;;;;5044976;28;20044;-67
2024/01/07 05:35:30;;;;;;;0.00;0.00;;;0.70;83.30;;;;;;5049082;28;20056;-67
2024/01/07 05:37:56;;;;;;;0.00;0.00;;;0.80;82.80;;;;;;5049164;28;20110;-67
2024/01/07 05:40:22;;;;;;;0.10;0.10;;;0.70;82.60;;;;;;5048885;28;20045;-67
2024/01/07 05:42:48;;;;;;;0.00;0.00;;;0.70;82.80;;;;;;5048085;28;20061;-67
2024/01/07 05:45:13;;;;;;;0.00;0.00;;;0.70;82.60;;;;;;5048568;28;20564;-67
2024/01/07 05:47:40;;;;;;;0.08;0.08;;;0.80;82.20;;;;;;5048310;28;20067;-67
2024/01/07 05:50:07;;;;;;;0.10;0.10;;;0.70;82.20;;;;;;5048437;28;20083;-67
2024/01/07 05:52:32;;;;;;;0.00;0.00;;;0.70;82.60;;;;;;5048262;28;20052;-67
2024/01/07 05:54:58;;;;;;;0.00;0.00;;;0.80;82.80;;;;;;5048681;28;20053;-67
2024/01/07 05:57:24;;;;;;;0.10;0.10;;;0.80;82.60;;;;;;5047662;28;20053;-67
2024/01/07 05:59:50;;;;;;;0.00;0.00;;;0.80;82.40;;;;;;5047295;28;20445;-67
2024/01/07 06:02:17;;;;;;;0.00;0.00;;;0.80;82.90;;;;;;5048085;28;20057;-67
2024/01/07 06:04:42;;;;;;;0.10;0.10;;;0.90;82.90;;;;;;5048484;28;20049;-67
2024/01/07 06:07:08;;;;;;;0.00;0.00;;;0.90;82.20;;;;;;5031017;28;20095;-67
2024/01/07 06:09:34;;;;;;;0.13;0.13;;;0.90;82.30;;;;;;5048091;28;20510;-67
2024/01/07 06:12:00;;;;;;;0.32;0.32;;;0.80;82.30;;;;;;5048066;28;20048;-67
2024/01/07 06:14:26;;;;;;;0.00;0.00;;;0.90;82.30;;;;;;5029684;28;20115;-67
2024/01/07 06:16:52;;;;;;;0.00;0.00;;;0.80;82.10;;;;;;5047682;28;20041;-67
2024/01/07 06:19:18;;;;;;;0.00;0.00;;;0.90;82.50;;;;;;5042158;28;20050;-67
2024/01/07 06:21:44;;;;;;;0.10;0.10;;;0.80;81.30;;;;;;5047913;28;20041;-67
2024/01/07 06:24:09;;;;;;;0.10;0.10;;;0.90;81.80;;;;;;5048056;28;20048;-67
2024/01/07 06:26:36;;;;;;;0.32;0.32;;;0.90;81.70;;;;;;5047562;28;20045;-67
2024/01/07 06:29:01;;;;;;;0.00;0.00;;;0.90;81.00;;;;;;5047768;28;20061;-67
2024/01/07 06:31:27;;;;;;;0.00;0.00;;;0.90;81.30;;;;;;5031847;28;20045;-68
2024/01/07 06:33:55;;;;;;;0.00;0.00;;;0.90;80.60;;;;;;5047931;28;20040;-67
2024/01/07 06:36:21;;;;;;;0.00;0.00;;;1.00;81.10;;;;;;5047338;28;20082;-67
2024/01/07 06:38:48;;;;;;;0.00;0.00;;;0.90;80.50;;;;;;5047730;28;20037;-67
2024/01/07 06:41:14;;;;;;;0.00;0.00;;;0.90;81.10;;;;;;5044937;28;20068;-67
2024/01/07 06:43:40;;;;;;;0.00;0.00;;;0.90;81.00;;;;;;5047135;28;20399;-68
2024/01/07 06:46:06;;;;;;;0.00;0.00;;;0.90;81.20;;;;;;5045214;28;20264;-68
2024/01/07 06:48:31;;;;;;;0.00;0.00;;;0.90;81.30;;;;;;5026262;28;20491;-67
2024/01/07 06:50:57;;;;;;;0.00;0.00;;;0.90;81.40;;;;;;5046335;28;20040;-67
2024/01/07 06:53:23;;;;;;;0.00;0.00;;;0.80;80.20;;;;;;5045326;28;20029;-67
2024/01/07 06:55:49;;;;;;;0.10;0.10;;;0.90;80.60;;;;;;5027757;28;20110;-67
2024/01/07 06:58:14;;;;;;;0.00;0.00;;;0.90;80.80;;;;;;5028690;28;20064;-67
2024/01/07 07:00:40;;;;;;;0.00;0.00;;;0.80;80.10;;;;;;5046726;28;20572;-67
2024/01/07 07:03:06;;;;;;;0.55;0.45;;;0.90;80.80;;;;;;5046788;28;20037;-67
2024/01/07 07:05:32;;;;;;;0.10;0.10;;;0.90;81.10;;;;;;5046795;28;20052;-68
2024/01/07 07:07:57;;;;;;;0.10;0.10;;;0.90;81.00;;;;;;5028857;28;20045;-67
2024/01/07 07:10:23;;;;;;;0.00;0.00;;;1.00;81.20;;;;;;5046626;28;20045;-67
2024/01/07 07:12:50;;;;;;;0.22;0.22;;;0.90;80.30;;;;;;5029424;28;20122;-68
2024/01/07 07:15:16;;;;;;;0.00;0.00;;;0.90;80.80;;;;;;5046251;28;20132;-67
2024/01/07 07:17:42;;;;;;;0.00;0.00;;;1.00;80.60;;;;;;5046135;28;20040;-68
2024/01/07 07:20:08;;;;;;;0.00;0.00;;;0.90;80.00;;;;;;5028949;28;20053;-68
2024/01/07 07:22:34;;;;;;;0.00;0.00;;;0.90;80.40;;;;;;5045579;28;20037;-68
2024/01/07 07:25:00;;;;;;;0.00;0.00;;;0.90;80.60;;;;;;5028989;28;20037;-68
2024/01/07 07:27:26;;;;;;;0.00;0.00;;;0.90;80.60;;;;;;5045304;28;20048;-68
2024/01/07 07:29:51;;;;;;;0.00;0.00;;;1.00;80.80;;;;;;5046028;28;20497;-67
2024/01/07 07:32:18;;;;;;;0.10;0.10;;;0.90;79.90;;;;;;5028862;28;20060;-68
2024/01/07 07:34:43;;;;;;;0.10;0.10;;;1.00;80.50;;;;;;5046515;28;20112;-68
2024/01/07 07:37:09;;;;;;;0.00;0.00;;;0.90;80.50;;;;;;5030092;28;20048;-67
2024/01/07 07:39:35;;;;;;;0.00;0.00;;;1.00;80.80;;;;;;5046703;28;20037;-68
2024/01/07 07:42:01;;;;;;;0.03;0.03;;;1.10;80.00;;;;;;5045403;28;20049;-68
2024/01/07 07:44:26;;;;;;;0.00;0.00;;;1.10;79.60;;;;;;5039558;28;20041;-68
2024/01/07 07:46:52;;;;;;;0.00;0.00;;;0.90;79.20;;;;;;5016259;28;20044;-68
2024/01/07 07:49:18;;;;;;;0.00;0.00;;;1.00;79.10;;;;;;5029565;28;20136;-68
2024/01/07 07:51:44;;;;;;;0.00;0.00;;;0.90;79.30;;;;;;5045985;28;20044;-68
2024/01/07 07:54:09;;;;;;;0.00;0.00;;;1.00;79.40;;;;;;5042816;28;20080;-68
2024/01/07 07:56:35;;;;;;;0.00;0.00;;;1.00;78.00;;;;;;5039437;28;20771;-68
2024/01/07 07:59:02;;;;;;;0.10;0.10;;;0.90;78.50;;;;;;5033943;28;20049;-67
2024/01/07 08:01:28;;;;;;;0.10;0.10;;;0.90;78.50;;;;;;5037117;28;20123;-68
2024/01/07 08:03:54;;;;;;;0.17;0.17;;;1.00;78.90;;;;;;5039716;28;20073;-68
2024/01/07 08:06:19;;;;;;;0.00;0.00;;;1.00;79.20;;;;;;5035373;28;20041;-68
2024/01/07 08:08:45;;;;;;;0.00;0.00;;;1.00;78.00;;;;;;5038185;28;20091;-68
2024/01/07 08:11:11;;;;;;;0.00;0.00;;;0.90;78.20;;;;;;5038819;28;20658;-68
2024/01/07 08:13:37;;;;;;;0.10;0.10;;;0.90;78.30;;;;;;5043866;28;20049;-68
2024/01/07 08:16:04;;;;;;;0.10;0.10;;;0.90;78.40;;;;;;5044422;28;20136;-68
2024/01/07 08:18:29;;;;;;;0.00;0.00;;;0.90;78.50;;;;;;5026313;28;20727;-68
2024/01/07 08:20:55;;;;;;;0.00;0.00;;;0.90;78.90;;;;;;5042915;28;20040;-68
2024/01/07 08:23:21;;;;;;;0.00;0.00;;;0.90;79.00;;;;;;5042440;28;20049;-68
2024/01/07 08:25:46;;;;;;;0.10;0.10;;;0.90;78.30;;;;;;5043923;28;20051;-68
2024/01/07 08:28:12;;;;;;;0.00;0.00;;;0.80;78.40;;;;;;5044017;28;20580;-68
2024/01/07 08:30:38;;;;;;;0.00;0.00;;;0.90;78.70;;;;;;5038627;28;20124;-68
2024/01/07 08:33:03;;;;;;;0.00;0.00;;;0.80;78.40;;;;;;5038244;28;20041;-67
2024/01/07 08:35:29;;;;;;;0.43;0.43;;;0.80;77.90;;;;;;5043470;28;20110;-67
2024/01/07 08:37:55;;;;;;;0.00;0.00;;;0.70;77.50;;;;;;5022454;28;20041;-68
2024/01/07 08:40:20;;;;;;;0.10;0.10;;;0.70;78.10;;;;;;5054842;28;20053;-67
2024/01/07 08:42:46;;;;;;;0.00;0.00;;;0.70;78.50;;;;;;5025686;28;20053;-67
2024/01/07 08:45:12;;;;;;;0.00;0.00;;;0.70;77.80;;;;;;5026944;28;20132;-67
2024/01/07 08:47:39;;;;;;;0.00;0.00;;;0.60;78.40;;;;;;5045130;28;20115;-67
2024/01/07 08:50:05;;;;;;;0.00;0.00;;;0.70;78.90;;;;;;5046654;28;20054;-68
2024/01/07 08:52:31;;;;;;;0.00;0.00;;;1.10;82.90;;;;;;5045720;28;20044;-68
2024/01/07 08:54:56;;;;;;;0.00;0.00;;;2.10;85.30;;;;;;5047682;28;20156;-68
2024/01/07 08:57:22;;;;;;;0.00;0.00;;;2.00;82.00;;;;;;5037227;28;20102;-68
2024/01/07 08:59:48;;;;;;;0.10;0.10;;;1.80;79.80;;;;;;5028273;28;20052;-68
2024/01/07 09:02:13;;;;;;;0.00;0.00;;;1.60;79.70;;;;;;5048452;28;20045;-68
2024/01/07 09:04:39;;;;;;;0.00;0.00;;;1.40;78.80;;;;;;5048693;28;20709;-67
2024/01/07 09:07:05;;;;;;;0.00;0.00;;;1.40;78.60;;;;;;5047839;28;20524;-67
2024/01/07 09:09:30;;;;;;;0.00;0.00;;;1.40;79.30;;;;;;5047261;28;20052;-66
2024/01/07 09:11:56;;;;;;;0.05;0.05;;;1.30;78.40;;;;;;5048482;28;20578;-67
2024/01/07 09:14:22;;;;;;;0.43;0.43;;;1.10;77.50;;;;;;5045164;28;20038;-67
2024/01/07 09:16:48;;;;;;;0.00;0.00;;;1.10;77.60;;;;;;5048446;28;20045;-67
2024/01/07 09:19:14;;;;;;;0.00;0.00;;;1.00;77.70;;;;;;5049385;28;20090;-67
2024/01/07 09:21:39;;;;;;;0.10;0.10;;;1.00;78.30;;;;;;5049015;28;20041;-67
2024/01/07 09:24:05;;;;;;;0.10;0.10;;;1.10;78.40;;;;;;5048909;28;20033;-66
2024/01/07 09:26:30;;;;;;;0.00;0.00;;;1.10;77.40;;;;;;5047357;28;20044;-67
2024/01/07 09:28:57;;;;;;;0.00;0.00;;;1.10;77.70;;;;;;5046313;28;20738;-67
2024/01/07 09:31:22;;;;;;;0.00;0.00;;;1.10;77.40;;;;;;5048688;28;20723;-68
2024/01/07 09:33:48;;;;;;;0.10;0.10;;;1.40;78.50;;;;;;5046949;28;20097;-67
2024/01/07 09:36:13;;;;;;;0.00;0.00;;;1.40;77.70;;;;;;5047964;28;20078;-67
2024/01/07 09:38:40;;;;;;;0.00;0.00;;;1.40;77.70;;;;;;5048856;28;20127;-67
2024/01/07 09:41:06;;;;;;;0.10;0.10;;;1.40;77.10;;;;;;5048161;28;20049;-66
2024/01/07 09:43:31;;;;;;;1.20;1.20;;;1.40;77.00;;;;;;5045462;28;20048;-69
2024/01/07 09:45:58;;;;;;;0.00;0.00;;;1.30;77.00;;;;;;5046209;28;20498;-67
2024/01/07 09:48:24;;;;;;;0.00;0.00;;;1.40;77.40;;;;;;5047120;28;20388;-67
2024/01/07 09:50:51;;;;;;;0.10;0.10;;;1.40;76.60;;;;;;5048303;28;20073;-67
2024/01/07 09:53:20;;;;;;;0.00;0.00;;;1.40;77.40;;;;;;5044127;28;20040;-67
2024/01/07 09:56:04;;;;;;;0.00;0.00;;;1.40;77.20;;;;;;5029884;28;20037;-67
2024/01/07 09:58:29;;;;;;;0.08;0.08;;;1.40;77.40;;;;;;5048336;28;20049;-67
2024/01/07 10:00:55;;;;;;;0.00;0.00;;;1.40;77.20;;;;;;5048138;28;20063;-67
2024/01/07 10:03:21;;;;;;;0.08;0.08;;;1.40;77.30;;;;;;5047502;28;20152;-67
2024/01/07 10:05:46;;;;;;;0.00;0.00;;;1.40;77.40;;;;;;5048205;28;20072;-67
2024/01/07 10:08:12;;;;;;;0.00;0.00;;;1.40;77.60;;;;;;5047162;28;21937;-67
2024/01/07 10:10:40;;;;;;;0.00;0.00;;;1.60;77.50;;;;;;5046441;28;20037;-67
2024/01/07 10:13:06;;;;;;;0.10;0.10;;;1.50;76.60;;;;;;5047781;28;20049;-67
2024/01/07 10:15:33;;;;;;;0.08;0.08;;;1.60;76.80;;;;;;5048089;28;20613;-67
2024/01/07 10:18:05;;;;;;;0.10;0.10;;;1.60;77.20;;;;;;5047745;28;20053;-67
2024/01/07 10:20:35;;;;;;;0.00;0.00;;;1.60;76.70;;;;;;5029783;28;20056;-68
2024/01/07 10:23:04;;;;;;;0.00;0.00;;;1.60;77.50;;;;;;5044271;28;20045;-68
2024/01/07 10:25:32;;;;;;;0.08;0.08;;;1.70;77.20;;;;;;5047569;28;20127;-67
2024/01/07 10:28:01;;;;;;;0.08;0.08;;;1.70;76.80;;;;;;5047014;28;20124;-67
2024/01/07 10:30:28;;;;;;;0.00;0.00;;;1.70;76.50;;;;;;5028435;28;20753;-68
2024/01/07 10:33:00;;;;;;;0.10;0.10;;;1.70;76.80;;;;;;5029068;28;20075;-68
2024/01/07 10:35:37;;;;;;;0.10;0.10;;;1.70;76.80;;;;;;5048500;28;20056;-66
2024/01/07 10:38:03;;;;;;;0.00;0.00;;;1.70;76.50;;;;;;5048394;28;20041;-66
2024/01/07 10:40:31;;;;;;;0.10;0.10;;;1.70;76.60;;;;;;5047847;28;20077;-67
2024/01/07 10:42:57;;;;;;;0.00;0.00;;;1.70;76.30;;;;;;5046630;28;20060;-68
2024/01/07 10:45:23;;;;;;;0.00;0.00;;;1.70;76.10;;;;;;5046910;28;20049;-68
2024/01/07 10:47:53;;;;;;;0.00;0.00;;;1.70;74.00;;;;;;5045944;28;20044;-67
2024/01/07 10:50:19;;;;;;;0.00;0.00;;;1.60;74.50;;;;;;5047442;28;20045;-67
2024/01/07 10:53:00;;;;;;;0.00;0.00;;;1.70;74.60;;;;;;5046252;28;20131;-67
2024/01/07 10:55:29;;;;;;;0.10;0.10;;;1.60;73.20;;;;;;5046139;28;20044;-67
2024/01/07 10:57:56;;;;;;;0.00;0.00;;;1.60;74.20;;;;;;5045676;28;20051;-67
2024/01/07 11:00:22;;;;;;;0.38;0.38;;;1.60;75.00;;;;;;5045735;28;20041;-67
2024/01/07 11:03:10;;;;;;;0.00;0.00;;;1.70;75.40;;;;;;5045552;28;20124;-67
2024/01/07 11:06:12;;;;;;;0.05;0.05;;;1.70;75.70;;;;;;5045329;28;20041;-67
2024/01/07 11:08:41;;;;;;;0.00;0.00;;;1.70;75.90;;;;;;5045958;28;20045;-67
2024/01/07 11:11:16;;;;;;;0.00;0.00;;;1.70;75.80;;;;;;5046566;28;20039;-67
2024/01/07 11:13:41;;;;;;;0.00;0.00;;;1.70;75.70;;;;;;5045416;28;20047;-67
2024/01/07 11:16:11;;;;;;;0.00;0.00;;;1.70;75.50;;;;;;5045128;28;20040;-67
2024/01/07 11:18:52;;;;;;;0.00;0.00;;;1.70;75.20;;;;;;5046668;28;20037;-67
2024/01/07 11:21:22;;;;;;;0.00;0.00;;;1.80;75.90;;;;;;5046669;28;20041;-67
2024/01/07 11:23:47;;;;;;;0.10;0.10;;;1.80;76.30;;;;;;5044773;28;20330;-67
2024/01/07 11:26:13;;;;;;;0.00;0.00;;;1.80;76.50;;;;;;5045727;28;20061;-67
2024/01/07 11:28:48;;;;;;;0.08;0.08;;;1.80;76.50;;;;;;5045422;28;20073;-67
2024/01/07 11:31:18;;;;;;;0.00;0.00;;;1.80;76.50;;;;;;5045798;28;20053;-67
2024/01/07 11:33:46;;;;;;;0.80;0.80;;;1.80;76.40;;;;;;5046159;28;20103;-68
2024/01/07 11:36:13;;;;;;;0.10;0.10;;;1.80;76.90;;;;;;5042720;28;20717;-68
2024/01/07 11:38:43;;;;;;;0.00;0.00;;;1.80;76.80;;;;;;5045269;28;20041;-68
2024/01/07 11:41:12;;;;;;;0.00;0.00;;;1.80;76.50;;;;;;5050619;28;20068;-68
2024/01/07 11:43:37;;;;;;;0.40;0.40;;;1.90;76.50;;;;;;5053167;28;20052;-67
2024/01/07 11:46:03;;;;;;;0.00;0.00;;;1.80;76.10;;;;;;5051538;28;20041;-68
2024/01/07 11:48:29;;;;;;;0.00;0.00;;;1.90;76.40;;;;;;5045628;28;20044;-68
2024/01/07 11:50:55;;;;;;;0.10;0.10;;;1.90;75.90;;;;;;5044357;28;20045;-68
2024/01/07 11:53:21;;;;;;;0.00;0.00;;;1.80;75.60;;;;;;5045868;28;20116;-68
2024/01/07 11:55:47;;;;;;;0.50;0.50;;;1.90;76.30;;;;;;5048177;28;20103;-68
2024/01/07 11:58:12;;;;;;;0.00;0.00;;;2.00;76.60;;;;;;5044957;28;20411;-68
2024/01/07 12:00:38;;;;;;;0.00;0.00;;;1.90;75.80;;;;;;5045226;28;20047;-68
2024/01/07 12:03:04;;;;;;;0.00;0.00;;;2.00;75.40;;;;;;5045516;28;20041;-68
2024/01/07 12:05:30;;;;;;;0.00;0.00;;;2.00;75.90;;;;;;5045924;28;20037;-68
2024/01/07 12:07:56;;;;;;;0.00;0.00;;;2.10;75.50;;;;;;5045723;28;20037;-69
2024/01/07 12:10:25;;;;;;;0.10;0.10;;;2.00;75.70;;;;;;5043402;28;20111;-68
2024/01/07 12:12:51;;;;;;;0.10;0.10;;;2.00;75.00;;;;;;5045124;28;20044;-68
2024/01/07 12:15:18;;;;;;;0.05;0.05;;;1.90;74.00;;;;;;5045493;28;20049;-70
2024/01/07 12:17:55;;;;;;;0.00;0.00;;;2.70;86.40;;;;;;5040966;28;20092;-70
2024/01/07 12:20:20;;;;;;;0.00;0.00;;;2.50;77.70;;;;;;5044951;28;20041;-69
2024/01/07 12:22:47;;;;;;;0.38;0.38;;;2.50;77.70;;;;;;5045564;28;20182;-69
2024/01/07 12:25:13;;;;;;;0.00;0.00;;;2.40;76.80;;;;;;5047756;28;20128;-69
2024/01/07 12:27:41;;;;;;;0.00;0.00;;;3.30;85.00;;;;;;5049001;28;20170;-69
2024/01/07 12:30:07;;;;;;;0.00;0.00;;;3.20;80.40;;;;;;5048646;28;20041;-69
2024/01/07 12:32:32;;;;;;;0.10;0.10;;;3.00;78.50;;;;;;5048769;28;20039;-68
2024/01/07 12:34:59;;;;;;;0.00;0.00;;;2.80;76.50;;;;;;5049540;28;20410;-69
2024/01/07 12:37:27;;;;;;;0.10;0.10;;;2.60;74.40;;;;;;5047660;28;20135;-69
2024/01/07 12:39:53;;;;;;;0.13;0.13;;;2.50;74.00;;;;;;5048253;28;20115;-69
2024/01/07 12:42:21;;;;;;;0.00;0.00;;;2.30;74.00;;;;;;5042317;28;20183;-69
2024/01/07 12:44:49;;;;;;;0.00;0.00;;;2.30;74.10;;;;;;5047345;28;20079;-69
2024/01/07 12:47:16;;;;;;;0.00;0.00;;;2.20;73.70;;;;;;5031089;28;20537;-69
2024/01/07 12:49:41;;;;;;;0.00;0.00;;;2.10;74.30;;;;;;5048599;28;20120;-70
2024/01/07 12:52:07;;;;;;;0.35;0.35;;;2.10;74.30;;;;;;5047437;28;20120;-69
2024/01/07 12:54:33;;;;;;;0.00;0.00;;;2.00;74.40;;;;;;5049548;28;20127;-70